Bemidji, MN (56601)

9:58 PM CST on February 05, 2016 (GMT -0600)
Turtle River TWP | | Change Station
CLOSE
Current Station
Personal Weather Station
Location: Bemidji, MN
Elevation: 1379 ft
Nearby Weather Stations
Active Advisory: Winter Storm Watch

Elev 1379 ft 47.54 °N, 94.72 °W | Updated 17 seconds ago

Mostly Cloudy
Mostly Cloudy
16.5 °F
Feels Like 8 °F
N
6.0
Wind Variable Wind from NW
Gusts 6.0 mph

Today
High -- | Low -- °F
--% Chance of Precip.
Yesterday
High -- | Low -- °F
Precip. -- in
Pressure 30.07 in
Visibility 5.0 miles
Clouds Overcast 300 ft
Windchill 8 °F
Dew Point 16 °F
Humidity 98%
Rainfall 0.00 in
Snow Depth Not available.
7:41 AM 5:26 PM
Waning Crescent, 8% visible
METAR KBJI 060352Z AUTO 25005KT 5SM BR OVC003 M08/M09 A3007 RMK AO2 T10841091
Pressure 30.07 in
Visibility 5.0 miles
Clouds Overcast 300 ft
Windchill 8 °F
Dew Point 16 °F
Humidity 98%
Rainfall 0.00 in
Snow Depth Not available.
7:41 AM 5:26 PM
Waning Crescent, 8% visible
METAR KBJI 060352Z AUTO 25005KT 5SM BR OVC003 M08/M09 A3007 RMK AO2 T10841091

10-Day Weather Forecast

Almanac

Astronomy

Feb. 05, 2016 Rise Set
Actual Time
Civil Twilight
Nautical Twilight
Astronomical Twilight
Moon
Length of Visible Light
Length of Day
Tomorrow will be .
, % of the Moon is Illuminated

Today's Extremes

State Highs State Lows

Community

WunderPhotos

Upload Photos

1,890,922 photos uploaded!

WunderBlog® & News

Nearby

Air Quality

  Air Quality AQ Index Pollutant
Not available.

Snow Depth

Station Depth Elevation

Earthquake Activity

City Distance Mag. Time & Date
Minimum magnitude displayed is 2.5.

Coastal Water Temperatures

Place Temperature

Stations

Nearby Weather Stations

Station Location Temp. Windchill Dew Point Humidity Wind Precip. Elev Updated Type
                   

Watches & Warnings

Winter Storm Watch
Issued: 3:13 PM CST Feb. 5, 2016 – National Weather Service

... Winter Storm Watch in effect from Sunday morning through late
Sunday night...

The National Weather Service in Grand Forks has issued a Winter
Storm Watch... which is in effect from Sunday morning through late
Sunday night.

* Timing... snow is possible from Sunday morning through late
Sunday night.

* Snow accumulations... total snow accumulations 4 inches or more
is possible.

* Winds / visibilities... significant reductions in visibility are
possible in open areas from falling and blowing snow Sunday
afternoon and Sunday night.

* Impacts... plan on difficult driving conditions Sunday and Sunday
night.

Precautionary/preparedness actions...

A Winter Storm Watch means there is potential for significant
snow... sleet or ice accumulations that may impact travel.
Continue to monitor the latest forecasts.


Dk